createdAt,value
2023-05-20T00:02:07.868Z,11.20
2023-05-20T00:04:38.851Z,11.30
2023-05-20T00:07:10.746Z,11.30
2023-05-20T00:09:41.030Z,11.40
2023-05-20T00:12:11.094Z,11.40
2023-05-20T00:14:40.150Z,11.50
2023-05-20T00:17:11.588Z,11.50
2023-05-20T00:19:40.762Z,11.60
2023-05-20T00:22:10.221Z,11.60
2023-05-20T00:24:42.133Z,11.70
2023-05-20T00:27:13.107Z,11.70
2023-05-20T00:29:41.674Z,11.80
2023-05-20T00:32:11.013Z,11.90
2023-05-20T00:34:39.760Z,12.00
2023-05-20T00:37:08.497Z,12.10
2023-05-20T00:39:37.018Z,12.20
2023-05-20T00:42:06.165Z,12.30
2023-05-20T00:44:36.615Z,12.30
2023-05-20T00:47:06.282Z,12.40
2023-05-20T00:49:35.747Z,12.40
2023-05-20T00:52:04.589Z,12.50
2023-05-20T00:54:34.423Z,12.60
2023-05-20T00:57:04.169Z,12.70
2023-05-20T00:59:33.045Z,12.70
2023-05-20T01:02:08.278Z,12.80
2023-05-20T01:04:38.363Z,12.80
2023-05-20T01:07:09.008Z,12.90
2023-05-20T01:09:38.098Z,13.00
2023-05-20T01:12:16.423Z,13.00
2023-05-20T01:14:51.373Z,13.10
2023-05-20T01:17:23.229Z,13.10
2023-05-20T01:19:54.690Z,13.10
2023-05-20T01:22:27.934Z,13.10
2023-05-20T01:24:57.199Z,13.20
2023-05-20T01:27:30.633Z,13.20
2023-05-20T01:30:00.913Z,13.10
2023-05-20T01:32:37.089Z,13.10
2023-05-20T01:35:08.255Z,13.10
2023-05-20T01:37:42.285Z,13.10
2023-05-20T01:40:15.759Z,13.00
2023-05-20T01:42:53.664Z,13.00
2023-05-20T01:45:23.206Z,12.90
2023-05-20T01:47:52.589Z,12.90
2023-05-20T01:50:23.670Z,12.80
2023-05-20T01:52:54.068Z,12.80
2023-05-20T01:55:27.596Z,12.80
2023-05-20T01:57:56.843Z,12.80
2023-05-20T02:00:26.892Z,12.80
2023-05-20T02:02:56.545Z,12.80
2023-05-20T02:05:26.394Z,12.80
2023-05-20T02:07:56.554Z,12.70
2023-05-20T02:10:25.421Z,12.70
2023-05-20T02:12:55.375Z,12.70
2023-05-20T02:15:24.000Z,12.70
2023-05-20T02:17:54.500Z,12.70
2023-05-20T02:20:23.101Z,12.60
2023-05-20T02:22:51.898Z,12.60
2023-05-20T02:25:22.441Z,12.60
2023-05-20T02:27:51.549Z,12.60
2023-05-20T02:30:21.967Z,12.60
2023-05-20T02:32:52.373Z,12.60
2023-05-20T02:35:21.354Z,12.60
2023-05-20T02:37:50.342Z,12.60
2023-05-20T02:40:19.596Z,12.60
2023-05-20T02:42:50.983Z,12.60
2023-05-20T02:45:22.473Z,12.60
2023-05-20T02:47:53.420Z,12.70
2023-05-20T02:50:22.808Z,12.70
2023-05-20T02:52:51.429Z,12.70
2023-05-20T02:55:21.636Z,12.70
2023-05-20T02:57:52.453Z,12.70
2023-05-20T03:00:22.799Z,12.70
2023-05-20T03:02:51.626Z,12.80
2023-05-20T03:05:20.669Z,12.70
2023-05-20T03:07:49.269Z,12.70
2023-05-20T03:10:19.729Z,12.70
2023-05-20T03:12:48.492Z,12.70
2023-05-20T03:15:18.846Z,12.70
2023-05-20T03:17:48.676Z,12.70
2023-05-20T03:20:17.769Z,12.70
2023-05-20T03:22:49.475Z,12.70
2023-05-20T03:25:18.347Z,12.70
2023-05-20T03:27:47.613Z,12.70
2023-05-20T03:30:18.139Z,12.70
2023-05-20T03:32:49.191Z,12.80
2023-05-20T03:35:20.661Z,12.80
2023-05-20T03:37:51.909Z,12.70
2023-05-20T03:40:27.460Z,12.80
2023-05-20T03:42:57.838Z,12.80
2023-05-20T03:45:29.745Z,12.80
2023-05-20T03:48:06.740Z,12.80
2023-05-20T03:50:37.472Z,12.80
2023-05-20T03:53:08.592Z,12.80
2023-05-20T03:55:42.462Z,12.90
2023-05-20T03:58:18.701Z,12.90
2023-05-20T04:00:49.207Z,13.00
2023-05-20T04:03:19.117Z,13.00
2023-05-20T04:05:50.963Z,13.00
2023-05-20T04:08:26.253Z,13.00
2023-05-20T04:10:58.154Z,13.10
2023-05-20T04:13:27.435Z,13.10
2023-05-20T04:15:57.570Z,13.10
2023-05-20T04:18:29.852Z,13.10
2023-05-20T04:21:00.213Z,13.20
2023-05-20T04:23:29.389Z,13.30
2023-05-20T04:26:02.277Z,13.30
2023-05-20T04:28:34.215Z,13.40
2023-05-20T04:31:05.733Z,13.50
2023-05-20T04:33:38.064Z,13.60
2023-05-20T04:36:12.501Z,13.60
2023-05-20T04:38:44.902Z,13.80
2023-05-20T04:41:14.032Z,13.90
2023-05-20T04:43:42.974Z,14.00
2023-05-20T04:46:14.285Z,14.10
2023-05-20T04:48:44.735Z,14.20
2023-05-20T04:51:15.116Z,14.30
2023-05-20T04:53:45.937Z,14.30
2023-05-20T04:56:16.833Z,14.50
2023-05-20T04:58:47.489Z,14.60
2023-05-20T05:01:18.961Z,14.70
2023-05-20T05:03:48.071Z,14.80
2023-05-20T05:06:17.200Z,14.90
2023-05-20T05:08:46.140Z,15.00
2023-05-20T05:11:15.173Z,15.00
2023-05-20T05:13:46.269Z,15.00
2023-05-20T05:16:20.361Z,15.10
2023-05-20T05:18:49.599Z,15.10
2023-05-20T05:21:19.488Z,15.10
2023-05-20T05:23:50.505Z,15.10
2023-05-20T05:26:19.649Z,15.10
2023-05-20T05:28:48.496Z,15.10
2023-05-20T05:31:18.583Z,15.20
2023-05-20T05:33:47.280Z,15.30
2023-05-20T05:36:18.168Z,15.30
2023-05-20T05:38:47.018Z,15.30
2023-05-20T05:41:17.407Z,15.40
2023-05-20T05:43:48.402Z,15.50
2023-05-20T05:46:19.418Z,15.50
2023-05-20T05:48:50.542Z,15.50
2023-05-20T05:51:20.125Z,15.60
2023-05-20T05:53:50.327Z,15.70
2023-05-20T05:56:21.726Z,15.70
2023-05-20T05:58:51.945Z,15.80
2023-05-20T06:01:22.628Z,15.80
2023-05-20T06:03:51.506Z,15.80
2023-05-20T06:06:21.185Z,15.90
2023-05-20T06:08:50.297Z,16.00
2023-05-20T06:11:20.884Z,16.10
2023-05-20T06:13:49.483Z,16.10
2023-05-20T06:16:21.412Z,16.10
2023-05-20T06:18:52.726Z,16.20
2023-05-20T06:21:22.972Z,16.30
2023-05-20T06:23:52.533Z,16.40
2023-05-20T06:26:21.469Z,16.50
2023-05-20T06:28:50.414Z,16.60
2023-05-20T06:31:20.116Z,16.70
2023-05-20T06:33:50.900Z,16.80
2023-05-20T06:36:19.937Z,16.90
2023-05-20T06:38:49.350Z,16.90
2023-05-20T06:41:19.189Z,17.00
2023-05-20T06:43:51.197Z,17.00
2023-05-20T06:46:40.633Z,17.20
2023-05-20T06:49:15.489Z,17.20
2023-05-20T06:51:44.722Z,17.30
2023-05-20T06:54:14.089Z,17.40
2023-05-20T06:56:48.654Z,17.50
2023-05-20T06:59:17.517Z,17.60
2023-05-20T07:01:46.624Z,17.60
2023-05-20T07:04:18.174Z,17.90
2023-05-20T07:06:47.080Z,18.10
2023-05-20T07:09:17.138Z,18.10
2023-05-20T07:11:48.558Z,18.20
2023-05-20T07:14:19.058Z,18.40
2023-05-20T07:16:50.170Z,18.50
2023-05-20T07:19:21.517Z,18.50
2023-05-20T07:21:51.803Z,18.60
2023-05-20T07:24:40.503Z,18.70
2023-05-20T07:27:10.056Z,18.80
2023-05-20T07:29:39.899Z,18.90
2023-05-20T07:32:13.041Z,19.10
2023-05-20T07:34:44.153Z,19.20
2023-05-20T07:37:14.990Z,19.20
2023-05-20T07:39:44.508Z,19.40
2023-05-20T07:42:13.053Z,19.50
2023-05-20T07:44:46.036Z,19.60
2023-05-20T07:47:15.855Z,19.70
2023-05-20T07:49:47.516Z,20.00
2023-05-20T07:52:16.394Z,20.30
2023-05-20T07:54:45.747Z,20.40
2023-05-20T07:57:14.526Z,20.40
2023-05-20T07:59:45.443Z,20.40
2023-05-20T08:02:14.602Z,20.30
2023-05-20T08:04:43.326Z,20.40
2023-05-20T08:07:13.288Z,20.40
2023-05-20T08:09:49.474Z,20.60
2023-05-20T08:12:18.590Z,20.70
2023-05-20T08:14:47.406Z,20.90
2023-05-20T08:17:16.532Z,21.00
2023-05-20T08:19:45.862Z,21.10
2023-05-20T08:22:17.641Z,21.30
2023-05-20T08:24:47.371Z,21.50
2023-05-20T08:27:17.464Z,21.80
2023-05-20T08:29:46.910Z,22.00
2023-05-20T08:32:15.903Z,22.30
2023-05-20T08:34:44.611Z,22.50
2023-05-20T08:37:13.416Z,22.90
2023-05-20T08:39:45.554Z,23.10
2023-05-20T08:42:15.184Z,23.40
2023-05-20T08:44:47.886Z,23.30
2023-05-20T08:47:16.622Z,23.20
2023-05-20T08:49:45.769Z,23.10
2023-05-20T08:52:16.549Z,23.30
2023-05-20T08:54:50.600Z,23.10
2023-05-20T08:57:21.500Z,23.10
2023-05-20T08:59:51.701Z,23.00
2023-05-20T09:02:20.701Z,23.10
2023-05-20T09:04:49.460Z,23.50
2023-05-20T09:07:29.117Z,23.80
2023-05-20T09:10:00.351Z,23.80
2023-05-20T09:12:29.576Z,24.00
2023-05-20T09:14:58.270Z,24.40
2023-05-20T09:17:27.123Z,24.60
2023-05-20T09:19:57.720Z,24.70
2023-05-20T09:22:28.283Z,24.70
2023-05-20T09:24:58.877Z,24.90
2023-05-20T09:27:28.182Z,24.80
2023-05-20T09:29:57.025Z,24.80
2023-05-20T09:32:28.397Z,24.90
2023-05-20T09:34:59.055Z,25.00
2023-05-20T09:37:30.029Z,25.40
2023-05-20T09:40:07.247Z,25.70
2023-05-20T09:42:42.284Z,25.70
2023-05-20T09:45:11.602Z,25.70
2023-05-20T09:47:42.591Z,25.50
2023-05-20T09:50:13.071Z,25.70
2023-05-20T09:52:42.546Z,26.10
2023-05-20T09:55:15.255Z,26.50
2023-05-20T09:57:44.376Z,26.40
2023-05-20T10:00:17.417Z,26.70
2023-05-20T10:02:49.985Z,27.20
2023-05-20T10:05:22.057Z,27.30
2023-05-20T10:08:49.999Z,27.50
2023-05-20T10:11:30.078Z,27.20
2023-05-20T10:14:28.010Z,26.50
2023-05-20T10:17:10.291Z,26.30
2023-05-20T10:19:39.358Z,27.00
2023-05-20T10:22:11.414Z,27.20
2023-05-20T10:24:42.666Z,27.00
2023-05-20T10:27:15.178Z,27.40
2023-05-20T10:29:46.121Z,27.50
2023-05-20T10:32:28.751Z,28.00
2023-05-20T10:35:05.534Z,28.50
2023-05-20T10:37:43.869Z,28.60
2023-05-20T10:40:15.614Z,28.30
2023-05-20T10:42:46.587Z,28.40
2023-05-20T10:45:27.078Z,28.50
2023-05-20T10:47:57.978Z,27.90
2023-05-20T10:50:31.749Z,27.60
2023-05-20T10:53:13.352Z,27.60
2023-05-20T10:55:54.698Z,27.30
2023-05-20T10:58:27.069Z,26.80
2023-05-20T11:00:56.718Z,26.40
2023-05-20T11:03:26.283Z,26.20
2023-05-20T11:05:55.426Z,26.10
2023-05-20T11:08:31.035Z,26.20
2023-05-20T11:11:00.124Z,26.40
2023-05-20T11:13:30.651Z,27.10
2023-05-20T11:16:00.343Z,27.10
2023-05-20T11:18:32.041Z,26.90
2023-05-20T11:21:01.577Z,26.80
2023-05-20T11:23:31.360Z,26.70
2023-05-20T11:26:00.688Z,27.10
2023-05-20T11:28:33.280Z,26.90
2023-05-20T11:31:02.133Z,27.90
2023-05-20T11:33:32.849Z,28.70
2023-05-20T11:36:01.864Z,28.50
2023-05-20T11:38:32.951Z,27.80
2023-05-20T11:41:01.783Z,27.60
2023-05-20T11:43:36.428Z,27.70
2023-05-20T11:46:07.507Z,27.80
2023-05-20T11:48:36.064Z,27.80
2023-05-20T11:51:04.900Z,27.50
2023-05-20T11:53:33.558Z,27.30
2023-05-20T11:56:03.472Z,27.30
2023-05-20T11:58:35.870Z,28.10
2023-05-20T12:01:20.834Z,29.10
2023-05-20T12:03:51.580Z,29.70
2023-05-20T12:06:20.903Z,29.40
2023-05-20T12:08:49.995Z,29.10
2023-05-20T12:11:19.221Z,29.00
2023-05-20T12:13:50.717Z,28.80
2023-05-20T12:16:20.006Z,29.00
2023-05-20T12:18:50.936Z,29.00
2023-05-20T12:21:19.634Z,29.10
2023-05-20T12:23:49.341Z,28.90
2023-05-20T12:26:18.507Z,28.60
2023-05-20T12:28:47.127Z,28.80
2023-05-20T12:31:18.137Z,28.80
2023-05-20T12:33:47.800Z,28.50
2023-05-20T12:36:17.302Z,28.20
2023-05-20T12:38:47.014Z,28.00
2023-05-20T12:41:16.262Z,27.80
2023-05-20T12:43:45.154Z,27.60
2023-05-20T12:46:14.737Z,27.40
2023-05-20T12:48:44.922Z,27.20
2023-05-20T12:51:13.555Z,27.00
2023-05-20T12:53:42.148Z,26.80
2023-05-20T12:56:11.389Z,26.60
2023-05-20T12:58:40.795Z,26.50
2023-05-20T13:01:10.881Z,26.60
2023-05-20T13:03:39.777Z,26.80
2023-05-20T13:06:11.089Z,27.00
2023-05-20T13:08:39.567Z,27.10
2023-05-20T13:11:08.417Z,27.20
2023-05-20T13:13:36.911Z,27.30
2023-05-20T13:16:06.727Z,27.30
2023-05-20T13:18:35.615Z,27.30
2023-05-20T13:21:04.565Z,27.50
2023-05-20T13:23:34.603Z,27.60
2023-05-20T13:26:03.287Z,27.80
2023-05-20T13:28:31.864Z,27.90
2023-05-20T13:31:02.982Z,27.70
2023-05-20T13:33:31.867Z,28.10
2023-05-20T13:36:01.170Z,28.30
2023-05-20T13:38:31.829Z,28.10
2023-05-20T13:41:02.711Z,27.90
2023-05-20T13:43:33.234Z,27.80
2023-05-20T13:46:03.668Z,27.50
2023-05-20T13:48:33.470Z,27.20
2023-05-20T13:51:02.989Z,27.00
2023-05-20T13:53:35.105Z,26.80
2023-05-20T13:56:05.878Z,26.60
2023-05-20T13:58:34.476Z,26.50
2023-05-20T14:01:03.911Z,26.50
2023-05-20T14:03:34.766Z,26.30
2023-05-20T14:06:03.384Z,26.30
2023-05-20T14:08:32.359Z,26.30
2023-05-20T14:11:01.349Z,26.30
2023-05-20T14:13:33.753Z,26.30
2023-05-20T14:16:02.378Z,26.30
2023-05-20T14:18:31.171Z,26.20
2023-05-20T14:20:59.783Z,26.10
2023-05-20T14:23:28.247Z,26.10
2023-05-20T14:25:57.153Z,26.10
2023-05-20T14:28:26.014Z,26.10
2023-05-20T14:30:56.788Z,26.20
2023-05-20T14:33:25.593Z,26.40
2023-05-20T14:35:54.497Z,26.30
2023-05-20T14:38:23.633Z,26.30
2023-05-20T14:40:52.155Z,26.20
2023-05-20T14:43:21.812Z,26.30
2023-05-20T14:45:52.326Z,26.20
2023-05-20T14:48:22.509Z,26.40
2023-05-20T14:50:51.248Z,26.30
2023-05-20T14:53:20.171Z,26.30
2023-05-20T14:55:49.232Z,26.20
2023-05-20T14:58:17.757Z,26.10
2023-05-20T15:00:46.542Z,26.10
2023-05-20T15:03:15.195Z,26.10
2023-05-20T15:05:45.859Z,26.10
2023-05-20T15:08:14.989Z,26.10
2023-05-20T15:10:45.788Z,26.00
2023-05-20T15:13:14.669Z,25.80
2023-05-20T15:15:43.525Z,25.60
2023-05-20T15:18:13.159Z,25.40
2023-05-20T15:20:42.581Z,25.20
2023-05-20T15:23:13.204Z,25.10
2023-05-20T15:25:41.993Z,25.10
2023-05-20T15:28:13.249Z,25.00
2023-05-20T15:30:42.460Z,25.00
2023-05-20T15:33:11.945Z,24.90
2023-05-20T15:35:40.620Z,24.80
2023-05-20T15:38:09.479Z,24.80
2023-05-20T15:40:41.106Z,24.80
2023-05-20T15:43:10.634Z,24.80
2023-05-20T15:45:39.115Z,24.80
2023-05-20T15:48:08.522Z,24.80
2023-05-20T15:50:37.977Z,24.90
2023-05-20T15:53:09.064Z,24.90
2023-05-20T15:55:39.472Z,24.90
2023-05-20T15:58:08.367Z,24.90
2023-05-20T16:00:37.323Z,24.90
2023-05-20T16:03:07.306Z,24.90
2023-05-20T16:05:37.796Z,24.90
2023-05-20T16:08:06.670Z,24.90
2023-05-20T16:10:35.544Z,24.80
2023-05-20T16:13:06.238Z,24.80
2023-05-20T16:15:36.731Z,24.70
2023-05-20T16:18:06.200Z,24.70
2023-05-20T16:20:38.334Z,24.80
2023-05-20T16:23:08.799Z,24.70
2023-05-20T16:25:37.848Z,24.70
2023-05-20T16:28:08.363Z,24.80
2023-05-20T16:30:37.815Z,24.80
2023-05-20T16:33:08.444Z,24.90
2023-05-20T16:35:37.261Z,25.00
2023-05-20T16:38:06.316Z,25.10
2023-05-20T16:40:35.893Z,25.00
2023-05-20T16:43:04.485Z,25.00
2023-05-20T16:45:35.378Z,25.00
2023-05-20T16:48:04.109Z,24.70
2023-05-20T16:50:32.921Z,24.60
2023-05-20T16:53:01.958Z,24.50
2023-05-20T16:55:30.880Z,24.50
2023-05-20T16:57:59.215Z,24.40
2023-05-20T17:00:28.536Z,24.30
2023-05-20T17:02:58.816Z,24.30
2023-05-20T17:05:27.828Z,24.30
2023-05-20T17:08:00.380Z,24.20
2023-05-20T17:10:29.974Z,24.30
2023-05-20T17:12:58.820Z,24.30
2023-05-20T17:15:28.070Z,24.10
2023-05-20T17:17:58.094Z,24.10
2023-05-20T17:20:26.817Z,24.10
2023-05-20T17:22:56.143Z,24.00
2023-05-20T17:25:24.708Z,23.90
2023-05-20T17:27:54.998Z,23.90
2023-05-20T17:30:23.898Z,23.70
2023-05-20T17:32:54.098Z,23.60
2023-05-20T17:35:26.083Z,23.50
2023-05-20T17:37:55.384Z,23.50
2023-05-20T17:40:24.383Z,23.40
2023-05-20T17:42:53.210Z,23.30
2023-05-20T17:45:22.313Z,23.30
2023-05-20T17:47:50.976Z,23.10
2023-05-20T17:50:19.910Z,23.00
2023-05-20T17:52:50.939Z,23.00
2023-05-20T17:55:22.240Z,22.90
2023-05-20T17:57:52.252Z,22.80
2023-05-20T18:00:21.977Z,22.80
2023-05-20T18:02:50.759Z,22.70
2023-05-20T18:05:19.613Z,22.70
2023-05-20T18:07:50.108Z,22.60
2023-05-20T18:10:21.048Z,22.50
2023-05-20T18:12:49.682Z,22.40
2023-05-20T18:15:19.665Z,22.30
2023-05-20T18:17:49.352Z,22.20
2023-05-20T18:20:17.953Z,22.10
2023-05-20T18:22:49.615Z,22.10
2023-05-20T18:25:20.148Z,22.00
2023-05-20T18:27:49.034Z,21.90
2023-05-20T18:30:18.056Z,21.80
2023-05-20T18:32:46.724Z,21.70
2023-05-20T18:35:15.548Z,21.60
2023-05-20T18:37:44.209Z,21.60
2023-05-20T18:40:14.443Z,21.50
2023-05-20T18:42:44.939Z,21.40
2023-05-20T18:45:14.129Z,21.30
2023-05-20T18:47:43.655Z,21.20
2023-05-20T18:50:15.826Z,21.20
2023-05-20T18:52:46.462Z,21.10
2023-05-20T18:55:15.795Z,21.10
2023-05-20T18:57:46.317Z,21.00
2023-05-20T19:00:18.155Z,21.00
2023-05-20T19:02:47.772Z,20.90
2023-05-20T19:05:17.406Z,20.90
2023-05-20T19:07:46.540Z,20.80
2023-05-20T19:10:15.277Z,20.70
2023-05-20T19:12:45.381Z,20.70
2023-05-20T19:15:14.757Z,20.60
2023-05-20T19:17:44.765Z,20.60
2023-05-20T19:20:14.512Z,20.50
2023-05-20T19:22:44.043Z,20.50
2023-05-20T19:25:12.800Z,20.40
2023-05-20T19:27:42.173Z,20.30
2023-05-20T19:30:14.560Z,20.20
2023-05-20T19:32:44.317Z,20.20
2023-05-20T19:35:12.990Z,20.20
2023-05-20T19:37:42.265Z,20.10
2023-05-20T19:40:13.619Z,20.10
2023-05-20T19:42:42.276Z,20.00
2023-05-20T19:45:15.775Z,20.00
2023-05-20T19:47:46.626Z,19.90
2023-05-20T19:50:16.052Z,19.80
2023-05-20T19:52:46.494Z,19.70
2023-05-20T19:55:15.243Z,19.70
2023-05-20T19:57:47.069Z,19.60
2023-05-20T20:00:18.019Z,19.60
2023-05-20T20:02:46.779Z,19.50
2023-05-20T20:05:15.988Z,19.50
2023-05-20T20:07:44.981Z,19.50
2023-05-20T20:10:13.795Z,19.40
2023-05-20T20:12:42.975Z,19.40
2023-05-20T20:15:13.291Z,19.40
2023-05-20T20:17:46.028Z,19.30
2023-05-20T20:20:15.537Z,19.30
2023-05-20T20:22:44.748Z,19.20
2023-05-20T20:25:15.925Z,19.20
2023-05-20T20:27:45.156Z,19.20
2023-05-20T20:30:15.669Z,19.20
2023-05-20T20:32:48.277Z,19.20
2023-05-20T20:35:17.274Z,19.20
2023-05-20T20:37:45.858Z,19.20
2023-05-20T20:40:14.980Z,19.10
2023-05-20T20:42:47.338Z,19.10
2023-05-20T20:45:17.298Z,19.00
2023-05-20T20:47:51.251Z,19.00
2023-05-20T20:50:20.085Z,19.00
2023-05-20T20:52:49.192Z,19.00
2023-05-20T20:55:18.168Z,19.00
2023-05-20T20:57:48.102Z,19.00
2023-05-20T21:00:20.930Z,19.00
2023-05-20T21:02:51.623Z,19.00
2023-05-20T21:05:21.710Z,19.00
2023-05-20T21:07:58.521Z,19.00
2023-05-20T21:10:30.781Z,18.90
2023-05-20T21:13:00.498Z,18.90
2023-05-20T21:15:29.426Z,18.90
2023-05-20T21:17:59.855Z,18.80
2023-05-20T21:20:29.089Z,18.80
2023-05-20T21:22:57.891Z,18.70
2023-05-20T21:25:26.427Z,18.70
2023-05-20T21:27:55.142Z,18.70
2023-05-20T21:30:24.855Z,18.60
2023-05-20T21:32:53.252Z,18.50
2023-05-20T21:35:23.326Z,18.50
2023-05-20T21:37:52.584Z,18.40
2023-05-20T21:40:21.713Z,18.40
2023-05-20T21:42:50.549Z,18.30
2023-05-20T21:45:19.471Z,18.20
2023-05-20T21:47:49.295Z,18.20
2023-05-20T21:50:19.213Z,18.10
2023-05-20T21:52:49.656Z,18.10
2023-05-20T21:55:23.885Z,18.00
2023-05-20T21:57:53.052Z,18.00
2023-05-20T22:00:23.318Z,17.90
2023-05-20T22:02:53.140Z,17.90
2023-05-20T22:05:22.622Z,17.80
2023-05-20T22:07:53.353Z,17.80
2023-05-20T22:10:23.555Z,17.80
2023-05-20T22:12:52.191Z,17.70
2023-05-20T22:15:20.942Z,17.70
2023-05-20T22:17:49.608Z,17.70
2023-05-20T22:20:18.691Z,17.60
2023-05-20T22:22:48.205Z,17.60
2023-05-20T22:25:19.097Z,17.60
2023-05-20T22:27:48.469Z,17.60
2023-05-20T22:30:17.351Z,17.60
2023-05-20T22:32:46.236Z,17.60
2023-05-20T22:35:16.634Z,17.60
2023-05-20T22:37:45.679Z,17.60
2023-05-20T22:40:14.736Z,17.50
2023-05-20T22:42:46.685Z,17.50
2023-05-20T22:45:15.188Z,17.50
2023-05-20T22:47:44.353Z,17.50
2023-05-20T22:50:14.411Z,17.50
2023-05-20T22:52:46.593Z,17.50
2023-05-20T22:55:15.128Z,17.40
2023-05-20T22:57:45.478Z,17.40
2023-05-20T23:00:15.700Z,17.40
2023-05-20T23:02:45.748Z,17.40
2023-05-20T23:05:15.186Z,17.30
2023-05-20T23:07:45.127Z,17.20
2023-05-20T23:10:14.960Z,17.10
2023-05-20T23:12:46.629Z,17.10
2023-05-20T23:15:15.970Z,17.10
2023-05-20T23:17:45.130Z,17.10
2023-05-20T23:20:14.693Z,17.10
2023-05-20T23:22:44.113Z,17.10
2023-05-20T23:25:13.147Z,17.00
2023-05-20T23:27:42.229Z,17.00
2023-05-20T23:30:13.561Z,17.00
2023-05-20T23:32:42.775Z,16.90
2023-05-20T23:35:13.297Z,16.90
2023-05-20T23:37:42.423Z,16.90
2023-05-20T23:40:12.036Z,16.90
2023-05-20T23:42:42.143Z,16.90
2023-05-20T23:45:14.476Z,16.80
2023-05-20T23:47:44.010Z,16.80
2023-05-20T23:50:14.545Z,16.80
2023-05-20T23:52:43.264Z,16.80
2023-05-20T23:55:12.912Z,16.80
2023-05-20T23:57:41.868Z,16.80
